BEL771 EBBR-LSZH
Flight info
| Callsign | BEL771 |
|---|---|
| Flight time | 0h 54m |
| Altitude | 33000 |
| Route | PITES M150 LAMGO T721 RILAX |
| Aircraft | A320/M-DE3FGHIJ1LORVWY/HB1 |
Departure
| Time | 2026-05-07 07:43 |
|---|---|
| Airport | Brussels Airport (EBBR) |
Arrival
| Time | 2026-05-07 08:37 |
|---|---|
| Airport | Zürich Airport (LSZH) |
| Time | Latitude | Longitude | Altitude | Speed | Heading |
|---|---|---|---|---|---|
| 2026-05-07 07:14 | 50.90475 | 4.48846 | 116 ft | 0 kts | 155° |
| 2026-05-07 07:36 | 50.90496 | 4.48831 | 117 ft | 4 kts | 155° |
| 2026-05-07 07:36 | 50.90521 | 4.48812 | 116 ft | 4 kts | 151° |
| 2026-05-07 07:36 | 50.90543 | 4.48789 | 118 ft | 4 kts | 134° |
| 2026-05-07 07:37 | 50.90554 | 4.48760 | 117 ft | 3 kts | 70° |
| 2026-05-07 07:37 | 50.90553 | 4.48756 | 116 ft | 0 kts | 65° |
| 2026-05-07 07:39 | 50.90562 | 4.48788 | 118 ft | 9 kts | 65° |
| 2026-05-07 07:39 | 50.90602 | 4.48925 | 118 ft | 16 kts | 65° |
| 2026-05-07 07:39 | 50.90646 | 4.49079 | 120 ft | 10 kts | 65° |
| 2026-05-07 07:40 | 50.90701 | 4.49097 | 120 ft | 8 kts | 352° |
| 2026-05-07 07:40 | 50.90750 | 4.49160 | 119 ft | 12 kts | 62° |
| 2026-05-07 07:40 | 50.90786 | 4.49285 | 118 ft | 14 kts | 66° |
| 2026-05-07 07:40 | 50.90834 | 4.49449 | 122 ft | 17 kts | 65° |
| 2026-05-07 07:41 | 50.90887 | 4.49631 | 120 ft | 19 kts | 65° |
| 2026-05-07 07:41 | 50.90933 | 4.49783 | 122 ft | 11 kts | 59° |
| 2026-05-07 07:41 | 50.91006 | 4.49884 | 117 ft | 18 kts | 31° |
| 2026-05-07 07:41 | 50.91100 | 4.49945 | 119 ft | 8 kts | 4° |
| 2026-05-07 07:42 | 50.91138 | 4.49900 | 119 ft | 6 kts | 281° |
| 2026-05-07 07:42 | 50.91123 | 4.49835 | 119 ft | 8 kts | 245° |
| 2026-05-07 07:42 | 50.91014 | 4.49462 | 120 ft | 75 kts | 245° |
| 2026-05-07 07:42 | 50.90708 | 4.48399 | 117 ft | 134 kts | 245° |
| 2026-05-07 07:43 | 50.90254 | 4.46835 | 284 ft | 166 kts | 246° |
| 2026-05-07 07:43 | 50.89801 | 4.45157 | 955 ft | 166 kts | 257° |
| 2026-05-07 07:43 | 50.89799 | 4.43349 | 1638 ft | 166 kts | 289° |
| 2026-05-07 07:43 | 50.90219 | 4.41660 | 2254 ft | 165 kts | 295° |
| 2026-05-07 07:44 | 50.90653 | 4.39974 | 2902 ft | 166 kts | 295° |
| 2026-05-07 07:44 | 50.91089 | 4.38271 | 3468 ft | 171 kts | 295° |
| 2026-05-07 07:44 | 50.91558 | 4.36395 | 3735 ft | 196 kts | 288° |
| 2026-05-07 07:44 | 50.91537 | 4.34140 | 4059 ft | 221 kts | 248° |
| 2026-05-07 07:45 | 50.90553 | 4.32130 | 4448 ft | 245 kts | 223° |
| 2026-05-07 07:45 | 50.89236 | 4.30212 | 4950 ft | 267 kts | 222° |
| 2026-05-07 07:45 | 50.87839 | 4.28232 | 5815 ft | 271 kts | 222° |
| 2026-05-07 07:45 | 50.86426 | 4.26235 | 6833 ft | 270 kts | 223° |
| 2026-05-07 07:46 | 50.85012 | 4.24278 | 7722 ft | 273 kts | 217° |
| 2026-05-07 07:46 | 50.83322 | 4.22857 | 8588 ft | 279 kts | 199° |
| 2026-05-07 07:46 | 50.81397 | 4.22357 | 9433 ft | 285 kts | 180° |
| 2026-05-07 07:46 | 50.79434 | 4.22895 | 10228 ft | 292 kts | 160° |
| 2026-05-07 07:47 | 50.77672 | 4.24657 | 10549 ft | 315 kts | 132° |
| 2026-05-07 07:47 | 50.76439 | 4.27653 | 10857 ft | 335 kts | 116° |
| 2026-05-07 07:47 | 50.75522 | 4.31084 | 11486 ft | 343 kts | 109° |
| 2026-05-07 07:47 | 50.75048 | 4.33529 | 11980 ft | 347 kts | 103° |
| 2026-05-07 07:48 | 50.74698 | 4.38573 | 12961 ft | 352 kts | 91° |
| 2026-05-07 07:48 | 50.74647 | 4.41193 | 13462 ft | 355 kts | 94° |
| 2026-05-07 07:48 | 50.74261 | 4.45066 | 14143 ft | 360 kts | 105° |
| 2026-05-07 07:48 | 50.73405 | 4.48790 | 14780 ft | 363 kts | 117° |
| 2026-05-07 07:49 | 50.72069 | 4.52174 | 15430 ft | 365 kts | 128° |
| 2026-05-07 07:49 | 50.70501 | 4.55356 | 16086 ft | 369 kts | 129° |
| 2026-05-07 07:49 | 50.68908 | 4.58543 | 16737 ft | 372 kts | 129° |
| 2026-05-07 07:49 | 50.67269 | 4.61722 | 17383 ft | 375 kts | 130° |
| 2026-05-07 07:50 | 50.65597 | 4.64904 | 18026 ft | 379 kts | 130° |
| 2026-05-07 07:50 | 50.63907 | 4.68112 | 18614 ft | 382 kts | 130° |
| 2026-05-07 07:50 | 50.62207 | 4.71340 | 19166 ft | 385 kts | 130° |
| 2026-05-07 07:50 | 50.60488 | 4.74606 | 19726 ft | 389 kts | 130° |
| 2026-05-07 07:51 | 50.58759 | 4.77897 | 20282 ft | 392 kts | 130° |
| 2026-05-07 07:51 | 50.57018 | 4.81216 | 20838 ft | 395 kts | 130° |
| 2026-05-07 07:51 | 50.55264 | 4.84560 | 21395 ft | 398 kts | 130° |
| 2026-05-07 07:51 | 50.53495 | 4.87932 | 21939 ft | 401 kts | 130° |
| 2026-05-07 07:52 | 50.51712 | 4.91330 | 22482 ft | 405 kts | 130° |
| 2026-05-07 07:52 | 50.49912 | 4.94756 | 23018 ft | 408 kts | 130° |
| 2026-05-07 07:52 | 50.48094 | 4.98201 | 23526 ft | 411 kts | 130° |
| 2026-05-07 07:52 | 50.46261 | 5.01668 | 23963 ft | 414 kts | 130° |
| 2026-05-07 07:53 | 50.44411 | 5.05159 | 24391 ft | 417 kts | 130° |
| 2026-05-07 07:53 | 50.42553 | 5.08664 | 24808 ft | 419 kts | 130° |
| 2026-05-07 07:53 | 50.40683 | 5.12189 | 25214 ft | 421 kts | 130° |
| 2026-05-07 07:53 | 50.38803 | 5.15728 | 25619 ft | 424 kts | 130° |
| 2026-05-07 07:54 | 50.36914 | 5.19287 | 26014 ft | 426 kts | 130° |
| 2026-05-07 07:54 | 50.35015 | 5.22861 | 26403 ft | 428 kts | 130° |
| 2026-05-07 07:54 | 50.33103 | 5.26448 | 26790 ft | 430 kts | 130° |
| 2026-05-07 07:54 | 50.31180 | 5.30048 | 27174 ft | 432 kts | 130° |
| 2026-05-07 07:55 | 50.29248 | 5.33659 | 27535 ft | 434 kts | 130° |
| 2026-05-07 07:55 | 50.27303 | 5.37287 | 27899 ft | 436 kts | 130° |
| 2026-05-07 07:55 | 50.25345 | 5.40929 | 28256 ft | 439 kts | 130° |
| 2026-05-07 07:55 | 50.23376 | 5.44581 | 28610 ft | 441 kts | 130° |
| 2026-05-07 07:56 | 50.21398 | 5.48255 | 28951 ft | 443 kts | 130° |
| 2026-05-07 07:56 | 50.19414 | 5.51948 | 29281 ft | 445 kts | 129° |
| 2026-05-07 07:56 | 50.17422 | 5.55650 | 29609 ft | 447 kts | 130° |
| 2026-05-07 07:56 | 50.15416 | 5.59365 | 29922 ft | 449 kts | 130° |
| 2026-05-07 07:57 | 50.13403 | 5.63094 | 30209 ft | 450 kts | 130° |
| 2026-05-07 07:57 | 50.11379 | 5.66833 | 30455 ft | 452 kts | 130° |
| 2026-05-07 07:57 | 50.09344 | 5.70582 | 30685 ft | 454 kts | 130° |
| 2026-05-07 07:57 | 50.07299 | 5.74345 | 30915 ft | 456 kts | 130° |
| 2026-05-07 07:58 | 50.05246 | 5.78118 | 31136 ft | 458 kts | 130° |
| 2026-05-07 07:58 | 50.03182 | 5.81900 | 31370 ft | 459 kts | 130° |
| 2026-05-07 07:58 | 50.01119 | 5.85676 | 31675 ft | 458 kts | 130° |
| 2026-05-07 07:58 | 49.99059 | 5.89445 | 31996 ft | 457 kts | 130° |
| 2026-05-07 07:59 | 49.97000 | 5.93208 | 32310 ft | 457 kts | 130° |
| 2026-05-07 07:59 | 49.94940 | 5.96960 | 32599 ft | 457 kts | 130° |
| 2026-05-07 07:59 | 49.92881 | 6.00705 | 32895 ft | 456 kts | 130° |
| 2026-05-07 07:59 | 49.90822 | 6.04450 | 33007 ft | 453 kts | 130° |
| 2026-05-07 08:00 | 49.88792 | 6.08142 | 33019 ft | 447 kts | 130° |
| 2026-05-07 08:00 | 49.85153 | 6.15844 | 33022 ft | 442 kts | 117° |
| 2026-05-07 08:01 | 49.82308 | 6.24297 | 33022 ft | 442 kts | 117° |
| 2026-05-07 08:01 | 49.79443 | 6.32729 | 33022 ft | 442 kts | 117° |
| 2026-05-07 08:02 | 49.76572 | 6.41132 | 33014 ft | 441 kts | 118° |
| 2026-05-07 08:02 | 49.73691 | 6.49513 | 33011 ft | 441 kts | 118° |
| 2026-05-07 08:03 | 49.70816 | 6.57879 | 32982 ft | 441 kts | 118° |
| 2026-05-07 08:03 | 49.67944 | 6.66252 | 32989 ft | 441 kts | 118° |
| 2026-05-07 08:04 | 49.65067 | 6.74615 | 32978 ft | 441 kts | 118° |
| 2026-05-07 08:04 | 49.62179 | 6.82977 | 32972 ft | 442 kts | 118° |
| 2026-05-07 08:05 | 49.59280 | 6.91340 | 32979 ft | 442 kts | 118° |
| 2026-05-07 08:05 | 49.56375 | 6.99691 | 32978 ft | 442 kts | 118° |
| 2026-05-07 08:06 | 49.53460 | 7.08041 | 32984 ft | 443 kts | 118° |
| 2026-05-07 08:06 | 49.50544 | 7.16374 | 32985 ft | 442 kts | 118° |
| 2026-05-07 08:07 | 49.47621 | 7.24708 | 32988 ft | 442 kts | 118° |
| 2026-05-07 08:07 | 49.44690 | 7.33021 | 32995 ft | 442 kts | 119° |
| 2026-05-07 08:08 | 49.41749 | 7.41315 | 32990 ft | 442 kts | 119° |
| 2026-05-07 08:08 | 49.38810 | 7.49593 | 32992 ft | 442 kts | 119° |
| 2026-05-07 08:09 | 49.35867 | 7.57879 | 32999 ft | 442 kts | 119° |
| 2026-05-07 08:09 | 49.32913 | 7.66156 | 32786 ft | 443 kts | 119° |
| 2026-05-07 08:09 | 49.31429 | 7.70295 | 32510 ft | 443 kts | 119° |
| 2026-05-07 08:10 | 49.29943 | 7.74434 | 32239 ft | 444 kts | 119° |
| 2026-05-07 08:10 | 49.28456 | 7.78572 | 31986 ft | 442 kts | 119° |
| 2026-05-07 08:10 | 49.26978 | 7.82679 | 31717 ft | 439 kts | 118° |
| 2026-05-07 08:10 | 49.25507 | 7.86758 | 31446 ft | 437 kts | 118° |
| 2026-05-07 08:11 | 49.24062 | 7.90768 | 31198 ft | 435 kts | 118° |
| 2026-05-07 08:11 | 49.22601 | 7.94820 | 30945 ft | 434 kts | 118° |
| 2026-05-07 08:11 | 49.21129 | 7.98897 | 30686 ft | 431 kts | 118° |
| 2026-05-07 08:11 | 49.19684 | 8.02893 | 30433 ft | 428 kts | 117° |
| 2026-05-07 08:12 | 49.18242 | 8.06865 | 30193 ft | 426 kts | 117° |
| 2026-05-07 08:12 | 49.16807 | 8.10809 | 29925 ft | 424 kts | 117° |
| 2026-05-07 08:12 | 49.15375 | 8.14734 | 29637 ft | 422 kts | 117° |
| 2026-05-07 08:12 | 49.13946 | 8.18644 | 29346 ft | 421 kts | 117° |
| 2026-05-07 08:13 | 49.12525 | 8.22523 | 29061 ft | 419 kts | 117° |
| 2026-05-07 08:13 | 49.11103 | 8.26408 | 28776 ft | 418 kts | 117° |
| 2026-05-07 08:13 | 49.09687 | 8.30275 | 28498 ft | 417 kts | 117° |
| 2026-05-07 08:13 | 49.08272 | 8.34130 | 28217 ft | 416 kts | 118° |
| 2026-05-07 08:14 | 49.06878 | 8.37917 | 27946 ft | 414 kts | 118° |
| 2026-05-07 08:14 | 49.05469 | 8.41738 | 27675 ft | 413 kts | 118° |
| 2026-05-07 08:14 | 49.04041 | 8.45601 | 27400 ft | 412 kts | 118° |
| 2026-05-07 08:14 | 49.02659 | 8.49330 | 26955 ft | 408 kts | 118° |
| 2026-05-07 08:15 | 49.01266 | 8.53083 | 26418 ft | 406 kts | 118° |
| 2026-05-07 08:15 | 48.99872 | 8.56807 | 25885 ft | 404 kts | 120° |
| 2026-05-07 08:15 | 48.98266 | 8.60299 | 25374 ft | 402 kts | 128° |
| 2026-05-07 08:15 | 48.96478 | 8.63559 | 24900 ft | 400 kts | 129° |
| 2026-05-07 08:16 | 48.94701 | 8.66790 | 24414 ft | 397 kts | 129° |
| 2026-05-07 08:16 | 48.92867 | 8.69924 | 23937 ft | 395 kts | 136° |
| 2026-05-07 08:16 | 48.90727 | 8.72516 | 23447 ft | 393 kts | 148° |
| 2026-05-07 08:16 | 48.88311 | 8.74430 | 22925 ft | 390 kts | 159° |
| 2026-05-07 08:17 | 48.85730 | 8.75599 | 22419 ft | 386 kts | 171° |
| 2026-05-07 08:17 | 48.83079 | 8.76020 | 21944 ft | 381 kts | 181° |
| 2026-05-07 08:17 | 48.80454 | 8.75717 | 21466 ft | 377 kts | 191° |
| 2026-05-07 08:17 | 48.77882 | 8.75024 | 20987 ft | 374 kts | 192° |
| 2026-05-07 08:18 | 48.75324 | 8.74341 | 20516 ft | 372 kts | 192° |
| 2026-05-07 08:18 | 48.72783 | 8.73668 | 20085 ft | 369 kts | 191° |
| 2026-05-07 08:18 | 48.70259 | 8.72999 | 19757 ft | 367 kts | 192° |
| 2026-05-07 08:18 | 48.67752 | 8.72333 | 19403 ft | 365 kts | 192° |
| 2026-05-07 08:19 | 48.65267 | 8.71671 | 19025 ft | 360 kts | 192° |
| 2026-05-07 08:19 | 48.62805 | 8.71015 | 18440 ft | 359 kts | 192° |
| 2026-05-07 08:19 | 48.60353 | 8.70360 | 18032 ft | 356 kts | 192° |
| 2026-05-07 08:19 | 48.57922 | 8.69714 | 17600 ft | 353 kts | 192° |
| 2026-05-07 08:20 | 48.55478 | 8.69067 | 17133 ft | 351 kts | 192° |
| 2026-05-07 08:20 | 48.53084 | 8.68433 | 16739 ft | 347 kts | 192° |
| 2026-05-07 08:20 | 48.50716 | 8.67806 | 16334 ft | 344 kts | 192° |
| 2026-05-07 08:20 | 48.48366 | 8.67184 | 15942 ft | 342 kts | 192° |
| 2026-05-07 08:21 | 48.46036 | 8.66568 | 15553 ft | 338 kts | 192° |
| 2026-05-07 08:21 | 48.43753 | 8.65964 | 15161 ft | 336 kts | 192° |
| 2026-05-07 08:21 | 48.41462 | 8.65358 | 14785 ft | 333 kts | 192° |
| 2026-05-07 08:21 | 48.39188 | 8.64757 | 14419 ft | 330 kts | 192° |
| 2026-05-07 08:22 | 48.36936 | 8.64154 | 14040 ft | 328 kts | 193° |
| 2026-05-07 08:22 | 48.34707 | 8.63507 | 13665 ft | 325 kts | 193° |
| 2026-05-07 08:22 | 48.32501 | 8.62837 | 13227 ft | 322 kts | 194° |
| 2026-05-07 08:22 | 48.30314 | 8.62158 | 12803 ft | 320 kts | 194° |
| 2026-05-07 08:23 | 48.28140 | 8.61486 | 12382 ft | 318 kts | 194° |
| 2026-05-07 08:23 | 48.25973 | 8.60823 | 12048 ft | 317 kts | 194° |
| 2026-05-07 08:23 | 48.23817 | 8.60170 | 11751 ft | 315 kts | 194° |
| 2026-05-07 08:23 | 48.21672 | 8.59523 | 11405 ft | 314 kts | 194° |
| 2026-05-07 08:24 | 48.19541 | 8.58878 | 11012 ft | 311 kts | 194° |
| 2026-05-07 08:24 | 48.17424 | 8.58239 | 10597 ft | 310 kts | 194° |
| 2026-05-07 08:24 | 48.15314 | 8.57610 | 10186 ft | 308 kts | 193° |
| 2026-05-07 08:24 | 48.13227 | 8.56990 | 9908 ft | 301 kts | 194° |
| 2026-05-07 08:25 | 48.11210 | 8.56391 | 9763 ft | 290 kts | 193° |
| 2026-05-07 08:25 | 48.09258 | 8.55809 | 9605 ft | 281 kts | 194° |
| 2026-05-07 08:25 | 48.07372 | 8.55247 | 9467 ft | 271 kts | 194° |
| 2026-05-07 08:25 | 48.05555 | 8.54708 | 9331 ft | 261 kts | 194° |
| 2026-05-07 08:26 | 48.02117 | 8.53689 | 8921 ft | 247 kts | 194° |
| 2026-05-07 08:26 | 48.00438 | 8.53189 | 8585 ft | 245 kts | 194° |
| 2026-05-07 08:26 | 47.98771 | 8.52692 | 8249 ft | 244 kts | 194° |
| 2026-05-07 08:27 | 47.97109 | 8.52198 | 7922 ft | 243 kts | 194° |
| 2026-05-07 08:27 | 47.95455 | 8.51708 | 7616 ft | 242 kts | 193° |
| 2026-05-07 08:27 | 47.93811 | 8.51220 | 7332 ft | 241 kts | 194° |
| 2026-05-07 08:27 | 47.92172 | 8.50728 | 7039 ft | 240 kts | 194° |
| 2026-05-07 08:28 | 47.90543 | 8.50234 | 6741 ft | 239 kts | 194° |
| 2026-05-07 08:28 | 47.88920 | 8.49736 | 6419 ft | 237 kts | 194° |
| 2026-05-07 08:28 | 47.87305 | 8.49240 | 6054 ft | 237 kts | 194° |
| 2026-05-07 08:28 | 47.85702 | 8.48751 | 5965 ft | 235 kts | 194° |
| 2026-05-07 08:29 | 47.84093 | 8.48262 | 5977 ft | 237 kts | 194° |
| 2026-05-07 08:29 | 47.82473 | 8.47772 | 5982 ft | 237 kts | 194° |
| 2026-05-07 08:29 | 47.80854 | 8.47284 | 5984 ft | 238 kts | 194° |
| 2026-05-07 08:29 | 47.79757 | 8.46952 | 5988 ft | 238 kts | 194° |
| 2026-05-07 08:30 | 47.78138 | 8.46463 | 5999 ft | 237 kts | 194° |
| 2026-05-07 08:30 | 47.76545 | 8.45980 | 5951 ft | 237 kts | 194° |
| 2026-05-07 08:30 | 47.74931 | 8.45492 | 5837 ft | 236 kts | 194° |
| 2026-05-07 08:30 | 47.73318 | 8.45007 | 5708 ft | 236 kts | 194° |
| 2026-05-07 08:31 | 47.71712 | 8.44526 | 5583 ft | 236 kts | 194° |
| 2026-05-07 08:31 | 47.70106 | 8.44044 | 5456 ft | 235 kts | 195° |
| 2026-05-07 08:31 | 47.68587 | 8.43373 | 5291 ft | 221 kts | 207° |
| 2026-05-07 08:31 | 47.67257 | 8.42334 | 5115 ft | 212 kts | 212° |
| 2026-05-07 08:32 | 47.65988 | 8.41308 | 5010 ft | 203 kts | 211° |
| 2026-05-07 08:32 | 47.64763 | 8.40327 | 5003 ft | 198 kts | 212° |
| 2026-05-07 08:32 | 47.63554 | 8.39359 | 5009 ft | 198 kts | 211° |
| 2026-05-07 08:32 | 47.62331 | 8.38429 | 4927 ft | 200 kts | 205° |
| 2026-05-07 08:33 | 47.60968 | 8.38045 | 4667 ft | 202 kts | 184° |
| 2026-05-07 08:33 | 47.59579 | 8.38459 | 4447 ft | 205 kts | 160° |
| 2026-05-07 08:33 | 47.58408 | 8.39622 | 4200 ft | 202 kts | 140° |
| 2026-05-07 08:33 | 47.57398 | 8.41014 | 3936 ft | 194 kts | 140° |
| 2026-05-07 08:34 | 47.56436 | 8.42338 | 3700 ft | 181 kts | 140° |
| 2026-05-07 08:34 | 47.55541 | 8.43567 | 3448 ft | 169 kts | 140° |
| 2026-05-07 08:34 | 47.54714 | 8.44720 | 3249 ft | 160 kts | 139° |
| 2026-05-07 08:34 | 47.53915 | 8.45840 | 2996 ft | 156 kts | 139° |
| 2026-05-07 08:35 | 47.53108 | 8.46909 | 2853 ft | 154 kts | 141° |
| 2026-05-07 08:35 | 47.52300 | 8.47995 | 2679 ft | 154 kts | 141° |
| 2026-05-07 08:35 | 47.51530 | 8.49048 | 2461 ft | 151 kts | 139° |
| 2026-05-07 08:35 | 47.50769 | 8.50120 | 2191 ft | 148 kts | 141° |
| 2026-05-07 08:36 | 47.50023 | 8.51158 | 1974 ft | 147 kts | 139° |
| 2026-05-07 08:36 | 47.49258 | 8.52162 | 1755 ft | 147 kts | 140° |
| 2026-05-07 08:36 | 47.48516 | 8.53202 | 1539 ft | 146 kts | 139° |
| 2026-05-07 08:36 | 47.47777 | 8.54203 | 1400 ft | 137 kts | 139° |
| 2026-05-07 08:37 | 47.47183 | 8.55007 | 1397 ft | 92 kts | 138° |
| 2026-05-07 08:37 | 47.46839 | 8.55477 | 1397 ft | 42 kts | 137° |
| 2026-05-07 08:37 | 47.46718 | 8.55624 | 1399 ft | 19 kts | 152° |
| 2026-05-07 08:37 | 47.46586 | 8.55685 | 1404 ft | 20 kts | 167° |
| 2026-05-07 08:38 | 47.46497 | 8.55715 | 1400 ft | 9 kts | 167° |
| 2026-05-07 08:38 | 47.46433 | 8.55736 | 1396 ft | 10 kts | 167° |
| 2026-05-07 08:38 | 47.46365 | 8.55785 | 1400 ft | 11 kts | 140° |
| 2026-05-07 08:38 | 47.46316 | 8.55850 | 1401 ft | 9 kts | 138° |
| 2026-05-07 08:39 | 47.46255 | 8.55931 | 1401 ft | 13 kts | 138° |
| 2026-05-07 08:39 | 47.46201 | 8.55997 | 1402 ft | 8 kts | 155° |
| 2026-05-07 08:39 | 47.46126 | 8.55997 | 1400 ft | 15 kts | 186° |
| 2026-05-07 08:39 | 47.46018 | 8.55980 | 1402 ft | 16 kts | 186° |
| 2026-05-07 08:40 | 47.45904 | 8.55942 | 1404 ft | 18 kts | 201° |
| 2026-05-07 08:40 | 47.45788 | 8.55879 | 1400 ft | 16 kts | 189° |
| 2026-05-07 08:40 | 47.45675 | 8.55862 | 1399 ft | 17 kts | 186° |
| 2026-05-07 08:40 | 47.45605 | 8.55852 | 1400 ft | 10 kts | 186° |
| 2026-05-07 08:41 | 47.45528 | 8.55843 | 1397 ft | 10 kts | 176° |
| 2026-05-07 08:41 | 47.45495 | 8.55918 | 1397 ft | 9 kts | 97° |
| 2026-05-07 08:41 | 47.45491 | 8.55997 | 1401 ft | 0 kts | 97° |
| 2026-05-07 08:42 | 47.45489 | 8.56003 | 1400 ft | 1 kts | 111° |
| 2026-05-07 08:42 | 47.45466 | 8.56010 | 1402 ft | 6 kts | 172° |
| 2026-05-07 08:42 | 47.45425 | 8.56004 | 1397 ft | 0 kts | 189° |
| 2026-05-07 08:42 | 47.45414 | 8.56003 | 1402 ft | 0 kts | 186° |